Главная страница
METAR-TAF:

METAR-TAF

Аэропорты :

Прага, Чехия

широта: 50-06N, долгота: 014-15E, высота над уровнем моря: 365 м

Текущие метеонаблюдения

Эта сводка был подготовлена 25 минут назад, в 22:30 UTC
Ветер 6 Узел от восточно-юго-восточный
Температура -2°C
Влажность 100%
Давление 1023 hPa
Видимость: 6000 м

METAR: LKPR 182230Z 12006KT 6000 NSC M02/M02 Q1023 NOSIG

Время: 23:55 (22:55 UTC)

Прогноз

Эта сводка был подготовлена 5 часа и 55 минут назад, в 17:00 UTC
Прогноз действительный с 18-го 18 UTC до 20-го 00 UTC
Ветер 5 Узел от юго-восточный
Видимость 10 км и более
Отдельные облака на высоте 3500 фута
временами
С 18-го 18 UTC до 19-го 08 UTC
Ветер 2 Узел переменных направлений
Видимость: 4000 м
дымка
Вероятность 30% :
временами
С 18-го 20 UTC до 19-го 00 UTC
Видимость: 2500 м
Рассеянная облачность на высоте 1000 фута
дымка

TAF: LKPR 181700Z 1818/2000 14005KT 9999 SCT035 TEMPO 1818/1908 VRB02KT 4000 BR NSC PROB30 TEMPO 1820/1900 2500 BR BKN010

Метеонаблюдения и прогнозы для более 4000 аэропортов (сводки METAR и TAF).

Имеющиеся станции представлены на карте желтыми и красными точками.

Чтобы увидеть название станции, наведите на нее мышь.

Затем щелкните, чтобы увидеть метеонаблюдения и метеопрогнозы.

Управление картой: чтобы увеличить масштаб, щелкните зеленые кнопки с черным крестиком; чтобы уменьшить масштаб, щелкните зеленую кнопку с тире; для просмотра соседних карт щелкайте зеленые стрелки.


METAR-TAF: